Skip Navigation Links
NOAA logo - Click to go to the NOAA homepage
NOAA's National Weather Service
Alaska Aviation Weather Unit
  NWS logo - Click to go to the NWS homepage
Left Navbar Graphic     02 AKDT = 10 GMT

   
NOAA is celebrating 200 years of science, service, and stewardship. Visit the NOAA 200th celebration Web site to learn more.
USA.gov is the U.S. Government's official Web portal to all Federal, state and local government Web resources and services.
Facebook
NWS on Facebook

AAWU Home :: Display TAF Add Bookmark
TAF PASC 270520Z 2706/2806 23013KT P6SM BKN035
     FM271600 09004KT P6SM BKN040 OVC100=
METAR PASC 270453Z 23013KT 10SM BKN035 M22/M24 A3009=

METAR PASC 270553Z 23012KT 10SM OVC035 M21/M24 A3010=

METAR PASC 270653Z 26011KT 3SM -SN FEW021 OVC033 M21/M23 A3011=

METAR PASC 270753Z 26010KT 6SM -SN OVC028 M20/M23 A3012=

METAR PASC 270853Z 27010KT 8SM -SN OVC025 M20/M23 A3013=

METAR PASC 270953Z 27009KT 9SM -SN OVC021 M21/M23 A3013=


NOAA's National Weather Service
Alaska Aviation Weather Unit
6930 Sand Lake Road
Anchorage, AK 99502-1845
Disclaimer
Credits
Glossary
Privacy Policy
About Us
Career Opportunities
Contact AAWU Internet Services Site last modified: April, 17th 2012